createdAt,value
2018-10-09T00:00:48.137Z,9.60
2018-10-09T00:03:17.362Z,9.70
2018-10-09T00:05:46.595Z,9.70
2018-10-09T00:08:15.872Z,9.70
2018-10-09T00:10:45.171Z,9.70
2018-10-09T00:13:14.495Z,9.70
2018-10-09T00:15:43.778Z,9.80
2018-10-09T00:18:13.071Z,9.90
2018-10-09T00:20:42.327Z,10.00
2018-10-09T00:23:11.527Z,10.20
2018-10-09T00:25:40.796Z,10.30
2018-10-09T00:28:09.992Z,10.30
2018-10-09T00:30:39.271Z,10.30
2018-10-09T00:33:08.487Z,10.30
2018-10-09T00:35:37.735Z,10.40
2018-10-09T00:38:07.235Z,10.50
2018-10-09T00:40:36.597Z,10.60
2018-10-09T00:43:05.856Z,10.70
2018-10-09T00:45:35.120Z,10.80
2018-10-09T00:48:04.398Z,10.90
2018-10-09T00:50:33.684Z,11.00
2018-10-09T00:53:02.984Z,11.00
2018-10-09T00:55:32.238Z,11.10
2018-10-09T00:58:01.790Z,11.10
2018-10-09T01:00:31.099Z,11.10
2018-10-09T01:03:00.443Z,11.10
2018-10-09T01:05:29.663Z,11.20
2018-10-09T01:07:59.063Z,11.20
2018-10-09T01:10:28.342Z,11.20
2018-10-09T01:12:57.535Z,11.20
2018-10-09T01:15:26.810Z,11.20
2018-10-09T01:17:56.083Z,11.20
2018-10-09T01:20:28.334Z,11.20
2018-10-09T01:22:57.566Z,11.20
2018-10-09T01:25:26.779Z,11.20
2018-10-09T01:27:56.037Z,11.20
2018-10-09T01:30:25.286Z,11.20
2018-10-09T01:32:54.575Z,11.20
2018-10-09T01:35:23.899Z,11.20
2018-10-09T01:37:53.953Z,11.20
2018-10-09T01:40:23.311Z,11.20
2018-10-09T01:42:52.568Z,11.20
2018-10-09T01:45:21.758Z,11.20
2018-10-09T01:47:51.004Z,11.20
2018-10-09T01:50:20.302Z,11.20
2018-10-09T01:52:49.647Z,11.20
2018-10-09T01:55:18.943Z,11.20
2018-10-09T01:57:48.549Z,11.20
2018-10-09T02:00:17.828Z,11.20
2018-10-09T02:02:47.748Z,11.10
2018-10-09T02:05:17.192Z,11.10
2018-10-09T02:07:46.402Z,11.20
2018-10-09T02:10:15.651Z,11.10
2018-10-09T02:12:44.854Z,11.10
2018-10-09T02:15:14.142Z,11.20
2018-10-09T02:17:43.368Z,11.20
2018-10-09T02:20:12.635Z,11.20
2018-10-09T02:22:41.898Z,11.20
2018-10-09T02:25:11.294Z,11.20
2018-10-09T02:27:40.599Z,11.20
2018-10-09T02:30:10.525Z,11.20
2018-10-09T02:32:40.226Z,11.30
2018-10-09T02:35:09.501Z,11.20
2018-10-09T02:37:38.806Z,11.30
2018-10-09T02:40:08.263Z,11.30
2018-10-09T02:42:37.470Z,11.30
2018-10-09T02:45:06.935Z,11.30
2018-10-09T02:47:36.215Z,11.30
2018-10-09T02:50:05.902Z,11.30
2018-10-09T02:52:35.328Z,11.40
2018-10-09T02:55:04.902Z,11.40
2018-10-09T02:57:35.014Z,11.40
2018-10-09T03:00:04.542Z,11.40
2018-10-09T03:02:33.839Z,11.50
2018-10-09T03:05:03.161Z,11.50
2018-10-09T03:07:32.501Z,11.50
2018-10-09T03:10:01.707Z,11.60
2018-10-09T03:12:31.147Z,11.60
2018-10-09T03:15:00.459Z,11.60
2018-10-09T03:17:29.772Z,11.50
2018-10-09T03:19:58.986Z,11.50
2018-10-09T03:22:28.747Z,11.50
2018-10-09T03:24:58.070Z,11.50
2018-10-09T03:27:27.310Z,11.60
2018-10-09T03:29:56.953Z,11.50
2018-10-09T03:32:26.212Z,11.60
2018-10-09T03:34:55.471Z,11.70
2018-10-09T03:37:25.080Z,11.70
2018-10-09T03:39:54.499Z,11.70
2018-10-09T03:42:23.903Z,11.70
2018-10-09T03:44:53.318Z,11.70
2018-10-09T03:47:22.571Z,11.70
2018-10-09T03:49:52.312Z,11.80
2018-10-09T03:52:21.641Z,11.80
2018-10-09T03:54:50.966Z,11.70
2018-10-09T03:57:20.235Z,11.80
2018-10-09T03:59:49.498Z,11.80
2018-10-09T04:02:19.204Z,11.80
2018-10-09T04:04:48.446Z,11.80
2018-10-09T04:07:17.718Z,11.80
2018-10-09T04:09:47.000Z,11.80
2018-10-09T04:12:16.302Z,11.80
2018-10-09T04:14:45.572Z,11.80
2018-10-09T04:17:15.144Z,11.80
2018-10-09T04:19:44.538Z,11.80
2018-10-09T04:22:20.059Z,11.80
2018-10-09T04:24:49.557Z,11.80
2018-10-09T04:27:19.812Z,11.80
2018-10-09T04:29:49.195Z,11.80
2018-10-09T04:32:18.453Z,11.80
2018-10-09T04:34:47.753Z,11.80
2018-10-09T04:37:16.987Z,11.70
2018-10-09T04:39:46.458Z,11.80
2018-10-09T04:42:16.034Z,11.80
2018-10-09T04:44:46.217Z,11.70
2018-10-09T04:47:15.707Z,11.70
2018-10-09T04:49:45.058Z,11.70
2018-10-09T04:52:14.766Z,11.60
2018-10-09T04:54:44.110Z,11.60
2018-10-09T04:57:13.497Z,11.60
2018-10-09T04:59:42.754Z,11.60
2018-10-09T05:02:12.308Z,11.60
2018-10-09T05:04:41.771Z,11.60
2018-10-09T05:07:11.075Z,11.60
2018-10-09T05:09:40.428Z,11.70
2018-10-09T05:12:09.775Z,11.60
2018-10-09T05:14:39.627Z,11.60
2018-10-09T05:17:08.999Z,11.70
2018-10-09T05:19:38.277Z,11.70
2018-10-09T05:22:07.879Z,11.70
2018-10-09T05:24:37.224Z,11.70
2018-10-09T05:27:06.633Z,11.70
2018-10-09T05:29:35.920Z,11.70
2018-10-09T05:32:05.330Z,11.70
2018-10-09T05:34:34.703Z,11.60
2018-10-09T05:37:04.073Z,11.60
2018-10-09T05:39:33.493Z,11.60
2018-10-09T05:42:02.815Z,11.70
2018-10-09T05:44:32.177Z,11.60
2018-10-09T05:47:01.552Z,11.70
2018-10-09T05:49:30.935Z,11.70
2018-10-09T05:52:00.178Z,11.60
2018-10-09T05:54:29.827Z,11.60
2018-10-09T05:56:59.147Z,11.70
2018-10-09T05:59:28.423Z,11.70
2018-10-09T06:01:57.807Z,11.70
2018-10-09T06:04:27.215Z,11.70
2018-10-09T06:06:56.577Z,11.70
2018-10-09T06:09:25.853Z,11.70
2018-10-09T06:11:56.496Z,11.80
2018-10-09T06:14:28.886Z,11.80
2018-10-09T06:16:58.703Z,11.80
2018-10-09T06:19:28.128Z,11.80
2018-10-09T06:21:57.956Z,11.80
2018-10-09T06:24:27.286Z,11.90
2018-10-09T06:26:56.765Z,11.90
2018-10-09T06:29:27.010Z,12.00
2018-10-09T06:31:56.525Z,12.00
2018-10-09T06:34:25.822Z,12.10
2018-10-09T06:36:55.511Z,12.10
2018-10-09T06:39:24.821Z,12.20
2018-10-09T06:41:54.586Z,12.30
2018-10-09T06:44:23.970Z,12.30
2018-10-09T06:46:53.236Z,12.40
2018-10-09T06:49:22.746Z,12.40
2018-10-09T06:51:52.107Z,12.40
2018-10-09T06:54:23.610Z,12.40
2018-10-09T06:56:54.357Z,12.50
2018-10-09T06:59:23.780Z,12.60
2018-10-09T07:01:53.277Z,12.60
2018-10-09T07:04:22.947Z,12.70
2018-10-09T07:06:52.186Z,12.70
2018-10-09T07:09:21.992Z,12.80
2018-10-09T07:11:51.398Z,12.80
2018-10-09T07:14:20.727Z,12.80
2018-10-09T07:16:50.081Z,12.80
2018-10-09T07:19:19.407Z,12.80
2018-10-09T07:21:48.815Z,12.80
2018-10-09T07:24:18.245Z,12.90
2018-10-09T07:26:47.603Z,12.90
2018-10-09T07:29:16.892Z,12.90
2018-10-09T07:31:47.227Z,13.00
2018-10-09T07:34:16.649Z,13.00
2018-10-09T07:36:46.018Z,13.00
2018-10-09T07:39:15.388Z,13.10
2018-10-09T07:41:44.749Z,13.10
2018-10-09T07:44:14.133Z,13.10
2018-10-09T07:46:43.527Z,13.10
2018-10-09T07:49:13.776Z,13.20
2018-10-09T07:51:43.130Z,13.20
2018-10-09T07:54:13.317Z,13.10
2018-10-09T07:56:43.094Z,13.20
2018-10-09T07:59:12.398Z,13.20
2018-10-09T08:01:41.704Z,13.30
2018-10-09T08:04:12.337Z,13.30
2018-10-09T08:06:41.669Z,13.40
2018-10-09T08:09:12.779Z,13.40
2018-10-09T08:11:42.924Z,13.40
2018-10-09T08:14:13.441Z,13.40
2018-10-09T08:16:45.728Z,13.50
2018-10-09T08:19:16.829Z,13.60
2018-10-09T08:21:46.728Z,13.60
2018-10-09T08:24:17.922Z,13.70
2018-10-09T08:26:49.081Z,13.70
2018-10-09T08:29:19.040Z,13.70
2018-10-09T08:31:48.900Z,13.70
2018-10-09T08:34:20.653Z,13.70
2018-10-09T08:36:50.249Z,13.80
2018-10-09T08:39:19.571Z,13.70
2018-10-09T08:41:49.548Z,13.70
2018-10-09T08:44:20.682Z,13.80
2018-10-09T08:46:50.220Z,13.90
2018-10-09T08:49:19.876Z,13.90
2018-10-09T08:51:50.035Z,14.00
2018-10-09T08:54:19.502Z,14.00
2018-10-09T08:56:50.138Z,14.10
2018-10-09T08:59:19.523Z,14.10
2018-10-09T09:01:48.854Z,14.20
2018-10-09T09:04:18.193Z,14.40
2018-10-09T09:06:47.561Z,14.40
2018-10-09T09:09:16.863Z,14.50
2018-10-09T09:11:46.243Z,14.50
2018-10-09T09:14:15.582Z,14.50
2018-10-09T09:16:45.074Z,14.50
2018-10-09T09:19:14.428Z,14.60
2018-10-09T09:21:43.815Z,14.60
2018-10-09T09:24:14.123Z,14.70
2018-10-09T09:26:43.981Z,14.80
2018-10-09T09:29:13.386Z,14.80
2018-10-09T09:31:42.824Z,14.70
2018-10-09T09:34:12.273Z,14.80
2018-10-09T09:36:41.707Z,14.80
2018-10-09T09:39:11.340Z,14.80
2018-10-09T09:41:40.661Z,14.90
2018-10-09T09:44:10.120Z,14.90
2018-10-09T09:46:39.449Z,15.00
2018-10-09T09:49:08.908Z,15.00
2018-10-09T09:51:38.207Z,15.10
2018-10-09T09:54:07.705Z,15.10
2018-10-09T09:56:37.062Z,15.20
2018-10-09T09:59:07.450Z,15.20
2018-10-09T10:01:44.519Z,15.30
2018-10-09T10:04:14.765Z,15.30
2018-10-09T10:06:44.253Z,15.30
2018-10-09T10:09:13.619Z,15.30
2018-10-09T10:11:42.964Z,15.40
2018-10-09T10:14:12.331Z,15.40
2018-10-09T10:16:41.651Z,15.40
2018-10-09T10:19:10.875Z,15.40
2018-10-09T10:21:40.220Z,15.30
2018-10-09T10:24:09.478Z,15.30
2018-10-09T10:26:38.778Z,15.30
2018-10-09T10:29:08.032Z,15.30
2018-10-09T10:31:37.399Z,15.30
2018-10-09T10:34:06.624Z,15.30
2018-10-09T10:36:35.950Z,15.30
2018-10-09T10:39:07.648Z,15.30
2018-10-09T10:41:37.203Z,15.30
2018-10-09T10:44:06.559Z,15.30
2018-10-09T10:46:37.888Z,15.40
2018-10-09T10:49:10.719Z,15.30
2018-10-09T10:51:40.048Z,15.30
2018-10-09T10:54:09.421Z,15.30
2018-10-09T10:56:38.702Z,15.30
2018-10-09T10:59:08.013Z,15.40
2018-10-09T11:01:37.356Z,15.40
2018-10-09T11:04:06.613Z,15.50
2018-10-09T11:06:35.915Z,15.50
2018-10-09T11:09:07.974Z,15.50
2018-10-09T11:11:37.308Z,15.50
2018-10-09T11:14:06.610Z,15.50
2018-10-09T11:16:35.803Z,15.60
2018-10-09T11:19:05.057Z,15.50
2018-10-09T11:21:34.902Z,15.60
2018-10-09T11:24:04.196Z,15.60
2018-10-09T11:26:33.480Z,15.60
2018-10-09T11:29:03.185Z,15.50
2018-10-09T11:31:32.507Z,15.50
2018-10-09T11:34:01.760Z,15.50
2018-10-09T11:36:31.258Z,15.60
2018-10-09T11:39:00.536Z,15.50
2018-10-09T11:41:29.894Z,15.50
2018-10-09T11:43:59.103Z,15.50
2018-10-09T11:46:28.357Z,15.60
2018-10-09T11:48:57.587Z,15.60
2018-10-09T11:51:26.932Z,15.70
2018-10-09T11:53:56.140Z,15.80
2018-10-09T11:56:25.570Z,15.90
2018-10-09T11:58:54.805Z,15.90
2018-10-09T12:01:24.288Z,15.90
2018-10-09T12:03:53.750Z,15.90
2018-10-09T12:06:23.028Z,16.00
2018-10-09T12:08:52.486Z,16.10
2018-10-09T12:11:21.795Z,16.10
2018-10-09T12:13:51.291Z,16.10
2018-10-09T12:16:20.541Z,16.20
2018-10-09T12:18:49.851Z,16.20
2018-10-09T12:21:19.275Z,16.30
2018-10-09T12:23:48.549Z,16.20
2018-10-09T12:26:17.906Z,16.10
2018-10-09T12:28:47.160Z,16.00
2018-10-09T12:31:16.516Z,16.00
2018-10-09T12:33:45.786Z,16.10
2018-10-09T12:36:15.039Z,16.20
2018-10-09T12:38:44.289Z,16.30
2018-10-09T12:41:13.527Z,16.40
2018-10-09T12:43:42.753Z,16.50
2018-10-09T12:46:12.137Z,16.60
2018-10-09T12:48:41.645Z,16.90
2018-10-09T12:51:10.998Z,17.00
2018-10-09T12:53:40.327Z,17.10
2018-10-09T12:56:09.624Z,17.10
2018-10-09T12:58:39.631Z,17.00
2018-10-09T13:01:09.165Z,16.90
2018-10-09T13:03:38.480Z,16.80
2018-10-09T13:06:07.847Z,16.80
2018-10-09T13:08:37.122Z,16.90
2018-10-09T13:11:06.968Z,17.00
2018-10-09T13:13:36.348Z,17.00
2018-10-09T13:16:05.743Z,16.90
2018-10-09T13:18:35.007Z,16.90
2018-10-09T13:21:04.690Z,16.60
2018-10-09T13:23:34.419Z,16.50
2018-10-09T13:26:03.814Z,16.50
2018-10-09T13:28:33.183Z,16.60
2018-10-09T13:31:02.480Z,16.70
2018-10-09T13:33:32.449Z,16.80
2018-10-09T13:36:01.751Z,16.70
2018-10-09T13:38:31.048Z,16.70
2018-10-09T13:41:00.503Z,16.50
2018-10-09T13:43:30.071Z,16.40
2018-10-09T13:46:00.184Z,16.20
2018-10-09T13:48:29.564Z,16.20
2018-10-09T13:50:58.916Z,16.20
2018-10-09T13:53:28.282Z,16.30
2018-10-09T13:55:57.621Z,16.30
2018-10-09T13:58:26.905Z,16.40
2018-10-09T14:00:56.226Z,16.40
2018-10-09T14:03:25.456Z,16.60
2018-10-09T14:05:54.804Z,16.70
2018-10-09T14:08:24.053Z,16.80
2018-10-09T14:10:53.402Z,16.80
2018-10-09T14:13:22.865Z,16.80
2018-10-09T14:15:52.337Z,16.80
2018-10-09T14:18:21.632Z,16.70
2018-10-09T14:20:51.508Z,16.70
2018-10-09T14:23:20.749Z,16.60
2018-10-09T14:25:50.099Z,16.60
2018-10-09T14:28:19.561Z,16.50
2018-10-09T14:30:48.932Z,16.40
2018-10-09T14:33:18.318Z,16.40
2018-10-09T14:35:47.652Z,16.40
2018-10-09T14:38:17.127Z,16.40
2018-10-09T14:40:46.636Z,16.50
2018-10-09T14:43:15.915Z,16.50
2018-10-09T14:45:45.166Z,16.60
2018-10-09T14:48:14.520Z,16.60
2018-10-09T14:50:44.071Z,16.50
2018-10-09T14:53:13.647Z,16.50
2018-10-09T14:55:43.110Z,16.40
2018-10-09T14:58:13.578Z,16.30
2018-10-09T15:00:42.982Z,16.30
2018-10-09T15:03:13.198Z,16.20
2018-10-09T15:05:43.449Z,16.20
2018-10-09T15:08:13.018Z,16.20
2018-10-09T15:10:47.118Z,16.10
2018-10-09T15:13:16.708Z,16.10
2018-10-09T15:15:46.209Z,16.10
2018-10-09T15:18:15.585Z,16.10
2018-10-09T15:20:45.056Z,16.10
2018-10-09T15:23:14.331Z,16.00
2018-10-09T15:25:43.851Z,15.90
2018-10-09T15:28:13.380Z,15.80
2018-10-09T15:30:42.715Z,15.80
2018-10-09T15:33:12.133Z,15.70
2018-10-09T15:35:41.638Z,15.60
2018-10-09T15:38:11.356Z,15.60
2018-10-09T15:40:40.744Z,15.50
2018-10-09T15:43:10.075Z,15.50
2018-10-09T15:45:39.479Z,15.40
2018-10-09T15:48:08.820Z,15.30
2018-10-09T15:50:38.175Z,15.30
2018-10-09T15:53:07.645Z,15.30
2018-10-09T15:55:37.007Z,15.10
2018-10-09T15:58:06.411Z,15.10
2018-10-09T16:00:38.890Z,15.00
2018-10-09T16:03:08.898Z,15.00
2018-10-09T16:05:38.271Z,14.90
2018-10-09T16:08:07.647Z,14.80
2018-10-09T16:10:37.166Z,14.80
2018-10-09T16:13:06.482Z,14.70
2018-10-09T16:15:35.835Z,14.70
2018-10-09T16:18:05.159Z,14.70
2018-10-09T16:20:34.637Z,14.60
2018-10-09T16:23:03.898Z,14.50
2018-10-09T16:25:33.265Z,14.40
2018-10-09T16:28:02.604Z,14.30
2018-10-09T16:30:32.090Z,14.30
2018-10-09T16:33:01.367Z,14.10
2018-10-09T16:35:30.756Z,14.00
2018-10-09T16:38:00.154Z,13.90
2018-10-09T16:40:29.630Z,13.80
2018-10-09T16:42:59.055Z,13.70
2018-10-09T16:45:28.944Z,13.60
2018-10-09T16:47:58.270Z,13.50
2018-10-09T16:50:27.672Z,13.40
2018-10-09T16:52:57.135Z,13.40
2018-10-09T16:55:26.521Z,13.30
2018-10-09T16:57:55.847Z,13.20
2018-10-09T17:00:25.228Z,13.20
2018-10-09T17:02:54.694Z,13.10
2018-10-09T17:05:24.334Z,13.00
2018-10-09T17:07:53.659Z,12.90
2018-10-09T17:10:23.002Z,12.80
2018-10-09T17:12:52.439Z,12.80
2018-10-09T17:15:21.937Z,12.70
2018-10-09T17:17:51.248Z,12.60
2018-10-09T17:20:20.739Z,12.60
2018-10-09T17:22:50.148Z,12.70
2018-10-09T17:25:19.448Z,12.80
2018-10-09T17:27:48.838Z,12.80
2018-10-09T17:30:18.251Z,12.70
2018-10-09T17:32:47.656Z,12.70
2018-10-09T17:35:17.563Z,12.60
2018-10-09T17:37:47.034Z,12.50
2018-10-09T17:40:16.394Z,12.40
2018-10-09T17:42:45.921Z,12.30
2018-10-09T17:45:15.409Z,12.20
2018-10-09T17:47:45.380Z,12.10
2018-10-09T17:50:16.057Z,12.10
2018-10-09T17:52:45.773Z,12.00
2018-10-09T17:55:15.672Z,11.90
2018-10-09T17:57:45.279Z,11.90
2018-10-09T18:00:14.823Z,11.80
2018-10-09T18:02:44.893Z,11.70
2018-10-09T18:05:14.949Z,11.70
2018-10-09T18:07:44.967Z,11.60
2018-10-09T18:10:14.912Z,11.60
2018-10-09T18:12:45.156Z,11.50
2018-10-09T18:15:16.085Z,11.50
2018-10-09T18:17:45.990Z,11.40
2018-10-09T18:20:15.811Z,11.40
2018-10-09T18:22:45.642Z,11.40
2018-10-09T18:25:15.580Z,11.40
2018-10-09T18:27:45.208Z,11.30
2018-10-09T18:30:14.879Z,11.30
2018-10-09T18:32:44.667Z,11.30
2018-10-09T18:35:14.365Z,11.20
2018-10-09T18:37:43.789Z,11.20
2018-10-09T18:40:13.261Z,11.20
2018-10-09T18:42:43.316Z,11.20
2018-10-09T18:45:12.945Z,11.10
2018-10-09T18:47:43.776Z,11.00
2018-10-09T18:50:13.668Z,11.00
2018-10-09T18:52:44.116Z,10.90
2018-10-09T18:55:15.502Z,10.90
2018-10-09T18:57:45.620Z,10.80
2018-10-09T19:00:15.798Z,10.80
2018-10-09T19:02:45.536Z,10.80
2018-10-09T19:05:15.359Z,10.80
2018-10-09T19:07:45.094Z,10.80
2018-10-09T19:10:15.027Z,10.70
2018-10-09T19:12:44.815Z,10.70
2018-10-09T19:15:14.663Z,10.60
2018-10-09T19:17:44.507Z,10.70
2018-10-09T19:20:14.249Z,10.60
2018-10-09T19:22:44.114Z,10.60
2018-10-09T19:25:13.908Z,10.60
2018-10-09T19:27:43.816Z,10.50
2018-10-09T19:30:14.173Z,10.50
2018-10-09T19:32:53.421Z,10.40
2018-10-09T19:35:25.064Z,10.30
2018-10-09T19:37:56.621Z,10.30
2018-10-09T19:40:27.270Z,10.30
2018-10-09T19:42:57.303Z,10.20
2018-10-09T19:45:26.948Z,10.20
2018-10-09T19:47:56.528Z,10.10
2018-10-09T19:50:26.036Z,10.10
2018-10-09T19:52:55.989Z,10.00
2018-10-09T19:55:26.083Z,10.00
2018-10-09T19:57:55.740Z,10.00
2018-10-09T20:00:25.624Z,10.00
2018-10-09T20:02:55.321Z,9.90
2018-10-09T20:05:25.201Z,10.00
2018-10-09T20:07:55.056Z,10.00
2018-10-09T20:10:25.014Z,10.00
2018-10-09T20:12:58.242Z,10.00
2018-10-09T20:15:28.358Z,10.00
2018-10-09T20:17:58.406Z,9.90
2018-10-09T20:20:28.201Z,9.90
2018-10-09T20:22:58.063Z,9.80
2018-10-09T20:25:27.828Z,9.80
2018-10-09T20:27:57.828Z,9.80
2018-10-09T20:30:27.520Z,9.80
2018-10-09T20:33:00.610Z,9.70
2018-10-09T20:35:33.108Z,9.70
2018-10-09T20:38:03.488Z,9.60
2018-10-09T20:40:33.116Z,9.60
2018-10-09T20:43:02.773Z,9.60
2018-10-09T20:45:32.706Z,9.70
2018-10-09T20:48:02.617Z,9.70
2018-10-09T20:50:32.451Z,9.70
2018-10-09T20:53:01.780Z,9.60
2018-10-09T20:55:31.168Z,9.60
2018-10-09T20:58:00.770Z,9.60
2018-10-09T21:00:30.333Z,9.60
2018-10-09T21:02:59.692Z,9.60
2018-10-09T21:05:29.023Z,9.50
2018-10-09T21:07:58.363Z,9.50
2018-10-09T21:10:29.257Z,9.50
2018-10-09T21:12:58.742Z,9.40
2018-10-09T21:15:28.052Z,9.40
2018-10-09T21:17:57.787Z,9.30
2018-10-09T21:20:27.768Z,9.30
2018-10-09T21:22:58.093Z,9.30
2018-10-09T21:25:27.705Z,9.30
2018-10-09T21:27:58.187Z,9.30
2018-10-09T21:30:29.045Z,9.30
2018-10-09T21:32:59.154Z,9.20
2018-10-09T21:35:29.030Z,9.20
2018-10-09T21:37:58.810Z,9.20
2018-10-09T21:40:29.590Z,9.20
2018-10-09T21:42:59.128Z,9.20
2018-10-09T21:45:28.638Z,9.20
2018-10-09T21:47:58.708Z,9.10
2018-10-09T21:50:29.217Z,9.10
2018-10-09T21:53:00.069Z,9.10
2018-10-09T21:55:30.135Z,9.00
2018-10-09T21:58:01.264Z,9.00
2018-10-09T22:00:36.449Z,8.90
2018-10-09T22:03:06.253Z,8.90
2018-10-09T22:05:35.561Z,8.90
2018-10-09T22:08:04.972Z,8.90
2018-10-09T22:10:34.279Z,8.90
2018-10-09T22:13:03.616Z,9.00
2018-10-09T22:15:32.983Z,9.00
2018-10-09T22:18:02.277Z,9.10
2018-10-09T22:20:31.546Z,9.00
2018-10-09T22:23:00.918Z,9.00
2018-10-09T22:25:30.172Z,9.00
2018-10-09T22:27:59.482Z,9.00
2018-10-09T22:30:28.808Z,9.10
2018-10-09T22:32:58.060Z,9.20
2018-10-09T22:35:27.885Z,9.20
2018-10-09T22:37:57.188Z,9.20
2018-10-09T22:40:26.552Z,9.30
2018-10-09T22:42:56.065Z,9.40
2018-10-09T22:45:25.344Z,9.40
2018-10-09T22:47:54.767Z,9.50
2018-10-09T22:50:23.999Z,9.70
2018-10-09T22:52:53.677Z,9.80
2018-10-09T22:55:23.548Z,9.80
2018-10-09T22:57:52.885Z,9.90
2018-10-09T23:00:22.308Z,9.90
2018-10-09T23:02:55.548Z,10.00
2018-10-09T23:05:25.075Z,10.10
2018-10-09T23:07:54.395Z,10.10
2018-10-09T23:10:23.754Z,10.20
2018-10-09T23:12:53.062Z,10.30
2018-10-09T23:15:22.339Z,10.20
2018-10-09T23:17:51.586Z,10.10
2018-10-09T23:20:20.847Z,10.10
2018-10-09T23:22:50.287Z,10.00
2018-10-09T23:25:19.626Z,9.90
2018-10-09T23:27:48.842Z,9.80
2018-10-09T23:30:18.189Z,9.80
2018-10-09T23:32:47.482Z,9.80
2018-10-09T23:35:16.719Z,9.90
2018-10-09T23:37:46.002Z,10.00
2018-10-09T23:40:15.287Z,10.10
2018-10-09T23:42:44.602Z,10.20
2018-10-09T23:45:13.818Z,10.20
2018-10-09T23:47:43.158Z,10.30
2018-10-09T23:50:12.391Z,10.40
2018-10-09T23:52:41.697Z,10.50
2018-10-09T23:55:10.962Z,10.50
2018-10-09T23:57:40.325Z,10.50
